EDT,Max TemperatureF,Mean TemperatureF,Min TemperatureF,Max Dew PointF,MeanDew PointF,Min DewpointF,Max Humidity, Mean Humidity, Min Humidity, Max Sea Level PressureIn, Mean Sea Level PressureIn, Min Sea Level PressureIn, Max VisibilityMiles, Mean VisibilityMiles, Min VisibilityMiles, Max Wind SpeedMPH, Mean Wind SpeedMPH, Max Gust SpeedMPH,PrecipitationIn, CloudCover, Events, WindDirDegrees
2012-10-1,64,54,44,45,43,41,87,57,45,29.94,29.87,29.83,10,10,10,8,5,,0.00,1,,80
2012-10-2,66,60,53,50,48,46,77,61,49,29.88,29.85,29.83,10,10,10,12,7,20,0.00,7,,66
2012-10-3,60,60,59,57,55,54,94,86,77,30.03,29.99,29.94,10,7,2,10,7,,0.00,8,Rain,185
2012-10-4,78,66,55,55,52,46,94,62,32,30.12,30.07,30.01,10,10,10,18,8,28,0.00,3,,216
2012-10-5,53,48,41,45,41,39,93,79,58,30.13,30.09,30.05,10,10,10,13,8,16,0.00,6,Rain,252
2012-10-6,46,40,33,32,31,30,87,61,53,30.12,30.10,30.03,10,10,10,15,10,20,0.00,7,,280
2012-10-7,46,42,41,39,36,28,93,79,50,30.14,30.13,30.10,10,10,7,12,10,,0.00,8,,271
2012-10-8,55,42,30,28,25,21,87,47,26,30.20,30.14,30.07,10,10,10,12,5,17,0.00,0,,194
2012-10-9,62,52,41,37,34,30,65,46,34,30.05,29.95,29.87,10,10,10,20,10,29,0.00,0,,200
2012-10-10,48,44,39,39,33,25,93,66,43,30.16,30.04,29.92,10,10,7,20,12,28,0.00,7,,270
2012-10-11,62,48,35,32,30,28,75,44,27,30.19,30.13,30.07,10,10,10,18,10,28,0.00,0,,226
2012-10-12,53,45,37,36,28,23,87,53,30,30.45,30.40,30.36,10,10,10,12,4,17,0.00,1,,77
2012-10-13,55,50,44,50,40,30,88,67,57,30.19,30.09,29.99,10,8,5,12,8,,0.00,8,Rain,152
2012-10-14,71,68,64,61,56,43,83,65,45,29.70,29.59,29.48,10,9,7,18,13,38,0.00,5,,187
2012-10-15,50,47,39,46,40,36,93,73,62,29.97,29.91,29.78,10,10,10,14,8,20,0.00,6,,294
2012-10-16,62,47,32,41,38,32,100,59,42,29.98,29.83,29.68,10,9,4,16,7,20,0.00,1,,153
2012-10-17,71,63,55,54,48,43,88,64,38,29.65,29.58,29.51,10,10,7,20,11,30,0.00,5,Rain-Thunderstorm,182
2012-10-18,57,52,44,48,37,27,94,62,31,29.62,29.50,29.39,10,10,7,20,12,32,0.00,5,Rain,220
2012-10-19,48,46,44,46,43,41,93,89,81,29.58,29.52,29.49,10,8,2,10,7,,0.00,8,Rain,176
2012-10-20,55,50,44,46,42,37,93,73,51,29.85,29.79,29.73,10,9,5,15,11,20,0.00,7,Rain,271
2012-10-21,62,48,35,46,42,36,100,70,52,30.08,30.06,30.02,10,8,5,8,3,,0.00,1,,153
2012-10-22,68,58,48,59,53,45,94,77,56,30.04,30.00,29.94,10,10,7,12,6,17,0.00,6,Rain,151
2012-10-23,69,66,62,59,56,48,82,74,59,29.99,29.97,29.93,10,9,5,14,5,20,0.00,7,,203
2012-10-24,77,68,60,59,57,55,82,62,50,30.01,29.97,29.94,10,10,7,12,7,17,0.00,1,,186
2012-10-25,75,66,57,55,55,52,94,62,50,29.94,29.86,29.80,10,10,10,21,11,40,0.00,3,,183
2012-10-26,48,45,41,36,31,30,71,58,50,30.27,30.23,30.19,10,10,10,13,10,18,0.00,4,,336
2012-10-27,50,42,35,28,28,27,75,52,40,30.27,30.23,30.17,10,10,10,13,6,22,0.00,0,,7
2012-10-28,46,40,35,28,27,25,70,54,46,30.24,30.21,30.17,10,10,10,12,7,17,0.00,4,,12
2012-10-29,48,40,33,27,24,19,70,50,32,30.19,30.11,29.99,10,10,10,16,10,29,0.00,1,,342
2012-10-30,41,40,39,36,34,30,87,81,70,29.70,29.64,29.38,10,10,10,21,15,34,0.00,8,Rain,334
2012-10-31,42,40,39,37,36,32,93,82,70,29.78,29.72,29.68,10,7,2,18,11,24,0.00,8,Rain,315